Time;durP1;ratioP1;P1;durP2;ratioP2;P2;SDS_P1;SDS_P2;PMS_P1;PMS_P2;Temp;Humidity;BMP_temperature;BMP_pressure;BME280_temperature;BME280_humidity;BME280_pressure;Samples;Min_cycle;Max_cycle;Signal;HPM_P1;HPM_P2
2023/07/21 00:01:13;;;;;;;4.20;1.70;;;;;;;-142.75;100.00;76294.72;5081453;28;20032;-60
2023/07/21 00:03:38;;;;;;;3.88;1.63;;;;;;;-142.75;100.00;76280.94;5069011;28;20029;-60
2023/07/21 00:06:06;;;;;;;3.13;1.45;;;;;;;-142.75;100.00;76275.03;5068755;28;20481;-59
2023/07/21 00:08:35;;;;;;;2.28;1.20;;;;;;;-142.75;100.00;76255.34;5068376;28;20590;-60
2023/07/21 00:11:01;;;;;;;6.95;1.38;;;;;;;-142.75;100.00;76257.31;5068439;28;20460;-59
2023/07/21 00:13:27;;;;;;;2.65;1.38;;;;;;;-142.75;100.00;76253.38;5068886;28;20103;-60
2023/07/21 00:15:54;;;;;;;2.03;1.10;;;;;;;-142.75;100.00;76253.38;5068887;28;20111;-60
2023/07/21 00:18:19;;;;;;;2.13;1.25;;;;;;;-142.75;100.00;76255.34;5068616;28;20039;-60
2023/07/21 00:20:46;;;;;;;1.77;1.13;;;;;;;-142.75;100.00;76253.38;5068694;28;20032;-58
2023/07/21 00:23:12;;;;;;;7.18;1.38;;;;;;;-142.75;100.00;76261.25;5068798;28;20162;-60
2023/07/21 00:25:38;;;;;;;2.50;1.52;;;;;;;-142.75;100.00;76265.19;5075653;28;20029;-59
2023/07/21 00:28:03;;;;;;;2.70;1.50;;;;;;;-142.75;100.00;76267.16;5068855;28;20539;-60
2023/07/21 00:30:29;;;;;;;2.90;1.23;;;;;;;-142.75;100.00;76273.06;5068755;28;20054;-61
2023/07/21 00:32:54;;;;;;;3.28;1.40;;;;;;;-142.75;100.00;76282.91;5068410;28;20039;-60
2023/07/21 00:35:19;;;;;;;3.75;1.45;;;;;;;-142.75;100.00;76284.88;5071620;28;20041;-60
2023/07/21 00:37:45;;;;;;;2.78;1.60;;;;;;;-142.75;100.00;76286.84;5088505;28;20036;-60
2023/07/21 00:40:18;;;;;;;6.03;1.63;;;;;;;-142.75;100.00;76280.94;5078611;28;20021;-60
2023/07/21 00:42:43;;;;;;;2.50;1.30;;;;;;;-142.75;100.00;76280.94;5068218;28;20047;-59
2023/07/21 00:45:09;;;;;;;2.47;1.30;;;;;;;-142.75;100.00;76275.03;5076923;28;20039;-59
2023/07/21 00:47:35;;;;;;;3.33;1.50;;;;;;;-142.75;100.00;76269.13;5088418;28;20495;-60
2023/07/21 00:50:00;;;;;;;4.80;2.17;;;;;;;-142.75;100.00;76282.91;5088296;28;20116;-60
2023/07/21 00:52:26;;;;;;;3.97;1.90;;;;;;;-142.75;100.00;76290.78;5088363;28;20471;-61
2023/07/21 00:54:52;;;;;;;3.45;2.10;;;;;;;-142.75;100.00;76286.84;5088263;28;20077;-61
2023/07/21 00:57:20;;;;;;;2.38;1.45;;;;;;;-142.75;100.00;76273.06;5080413;28;20411;-61
2023/07/21 00:59:46;;;;;;;4.47;1.80;;;;;;;-142.75;100.00;76273.06;5068004;28;20031;-61
2023/07/21 01:02:11;;;;;;;3.35;1.90;;;;;;;-142.75;100.00;76271.09;5067711;28;20104;-60
2023/07/21 01:04:37;;;;;;;3.42;1.83;;;;;;;-142.75;100.00;76263.22;5067983;28;20036;-60
2023/07/21 01:07:05;;;;;;;4.55;2.35;;;;;;;-142.75;100.00;76273.06;5067591;28;20165;-60
2023/07/21 01:09:35;;;;;;;6.05;3.45;;;;;;;-142.75;100.00;76278.97;5080787;28;20109;-61
2023/07/21 01:12:01;;;;;;;5.40;3.30;;;;;;;-142.75;100.00;76282.91;5081997;28;20166;-61
2023/07/21 01:14:29;;;;;;;3.22;2.28;;;;;;;-142.75;100.00;76280.94;5086444;28;20024;-60
2023/07/21 01:16:57;;;;;;;4.53;2.20;;;;;;;-142.75;100.00;76263.22;5087853;28;20035;-60
2023/07/21 01:19:23;;;;;;;3.25;2.17;;;;;;;-142.75;100.00;76269.13;5087603;28;20034;-60
2023/07/21 01:21:59;;;;;;;3.03;2.03;;;;;;;-142.75;100.00;76255.34;5086743;28;20030;-61
2023/07/21 01:24:42;;;;;;;4.13;2.67;;;;;;;-142.75;100.00;76265.19;5084916;28;21381;-60
2023/07/21 01:27:11;;;;;;;4.10;1.90;;;;;;;-142.75;100.00;76271.09;5067683;28;20036;-61
2023/07/21 01:29:41;;;;;;;5.07;2.55;;;;;;;-142.75;100.00;76278.97;5068162;28;20047;-61
2023/07/21 01:32:10;;;;;;;4.00;2.13;;;;;;;-142.75;100.00;76282.91;5067612;28;20020;-60
2023/07/21 01:34:37;;;;;;;3.95;2.42;;;;;;;-142.75;100.00;76290.78;5067506;28;20051;-60
2023/07/21 01:37:04;;;;;;;3.80;2.22;;;;;;;-142.75;100.00;76302.59;5077621;28;20031;-60
2023/07/21 01:39:31;;;;;;;5.28;2.28;;;;;;;-142.75;100.00;76304.56;5085535;28;20065;-61
2023/07/21 01:42:00;;;;;;;3.13;2.03;;;;;;;-142.75;100.00;76318.34;5086852;28;20024;-58
2023/07/21 01:44:25;;;;;;;3.70;2.13;;;;;;;-142.75;100.00;76326.22;5087206;28;20024;-60
2023/07/21 01:46:52;;;;;;;4.53;2.38;;;;;;;-142.75;100.00;76318.34;5087344;28;20036;-60
2023/07/21 01:49:18;;;;;;;4.32;2.85;;;;;;;-142.75;100.00;76330.16;5087054;28;20031;-60
2023/07/21 01:51:45;;;;;;;7.78;3.17;;;;;;;-142.75;100.00;76324.25;5078931;28;20067;-59
2023/07/21 01:54:25;;;;;;;6.88;2.92;;;;;;;-142.75;100.00;76316.38;5066787;28;20162;-61
2023/07/21 01:56:58;;;;;;;4.28;2.72;;;;;;;-142.75;100.00;76320.31;5067113;28;20099;-60
2023/07/21 01:59:25;;;;;;;3.65;2.42;;;;;;;-142.75;100.00;76341.97;5067552;28;20395;-60
2023/07/21 02:01:54;;;;;;;5.78;3.28;;;;;;;-142.75;100.00;76345.91;5067054;28;20503;-61
2023/07/21 02:04:20;;;;;;;4.72;2.55;;;;;;;-142.75;100.00;76330.16;5067107;28;20037;-60
2023/07/21 02:06:47;;;;;;;3.22;2.63;;;;;;;-142.75;100.00;76347.84;5066792;28;20020;-60
2023/07/21 02:09:12;;;;;;;4.70;2.83;;;;;;;-142.75;100.00;76347.84;5066870;28;20141;-60
2023/07/21 02:11:38;;;;;;;5.18;3.17;;;;;;;-142.75;100.00;76341.97;5083563;28;20103;-60
2023/07/21 02:14:03;;;;;;;6.00;2.72;;;;;;;-142.75;100.00;76332.13;5086853;28;20019;-58
2023/07/21 02:16:29;;;;;;;6.13;2.85;;;;;;;-142.75;100.00;76330.16;5070999;28;20031;-60
2023/07/21 02:18:55;;;;;;;5.40;2.85;;;;;;;-142.75;100.00;76324.25;5066865;28;20104;-60
2023/07/21 02:21:20;;;;;;;4.35;2.88;;;;;;;-142.75;100.00;76320.31;5066493;28;20047;-60
2023/07/21 02:23:46;;;;;;;5.85;2.92;;;;;;;-142.75;100.00;76316.38;5068183;28;20504;-61
2023/07/21 02:26:11;;;;;;;4.38;2.78;;;;;;;-142.75;100.00;76316.38;5086364;28;20024;-61
2023/07/21 02:28:36;;;;;;;5.18;3.17;;;;;;;-142.75;100.00;76324.25;5067182;28;20051;-61
2023/07/21 02:31:03;;;;;;;5.55;2.50;;;;;;;-142.75;100.00;76312.44;5066839;28;20017;-58
2023/07/21 02:33:33;;;;;;;4.35;2.35;;;;;;;-142.75;100.00;76310.47;5071363;28;20031;-60
2023/07/21 02:36:00;;;;;;;3.90;2.80;;;;;;;-142.75;100.00;76324.25;5090533;28;20024;-60
2023/07/21 02:38:26;;;;;;;3.67;2.28;;;;;;;-142.75;100.00;76338.03;5090971;28;20052;-60
2023/07/21 02:40:51;;;;;;;5.30;2.75;;;;;;;-142.75;100.00;76334.09;5090515;28;20484;-61
2023/07/21 02:43:17;;;;;;;3.85;2.63;;;;;;;-142.75;100.00;76326.22;5090521;28;20028;-60
2023/07/21 02:45:50;;;;;;;4.25;2.53;;;;;;;-142.75;100.00;76316.38;5090668;28;20445;-61
2023/07/21 02:48:17;;;;;;;6.85;2.90;;;;;;;-142.75;100.00;76318.34;5083800;28;20027;-61
2023/07/21 02:50:46;;;;;;;5.75;3.03;;;;;;;-142.75;100.00;76318.34;5070274;28;20024;-58
2023/07/21 02:53:12;;;;;;;4.03;2.55;;;;;;;-142.75;100.00;76314.41;5070261;28;20029;-60
2023/07/21 02:55:37;;;;;;;4.80;3.00;;;;;;;-142.75;100.00;76316.38;5082434;28;20020;-59
2023/07/21 02:58:03;;;;;;;4.78;2.80;;;;;;;-142.75;100.00;76318.34;5090515;28;20031;-60
2023/07/21 03:00:28;;;;;;;8.02;3.13;;;;;;;-142.75;100.00;76316.38;5071617;28;20028;-60
2023/07/21 03:02:53;;;;;;;3.92;2.67;;;;;;;-142.75;100.00;76318.34;5070089;28;20030;-61
2023/07/21 03:05:19;;;;;;;4.65;2.63;;;;;;;-142.75;100.00;76310.47;5070039;28;20480;-59
2023/07/21 03:07:44;;;;;;;4.40;2.75;;;;;;;-142.75;100.00;76306.53;5086966;28;20024;-60
2023/07/21 03:10:11;;;;;;;5.10;2.80;;;;;;;-142.75;100.00;76322.28;5089748;28;20052;-59
2023/07/21 03:12:36;;;;;;;4.90;2.97;;;;;;;-142.75;100.00;76328.19;5088440;28;20024;-60
2023/07/21 03:15:02;;;;;;;4.65;2.60;;;;;;;-142.75;100.00;76334.09;5073284;28;20024;-60
2023/07/21 03:17:28;;;;;;;4.03;2.90;;;;;;;-142.75;100.00;76357.69;5069702;28;20557;-60
2023/07/21 03:19:53;;;;;;;6.10;2.95;;;;;;;-142.75;100.00;76355.72;5069589;28;20024;-60
2023/07/21 03:22:18;;;;;;;6.05;2.75;;;;;;;-142.75;100.00;76363.59;5069788;28;20086;-60
2023/07/21 03:24:44;;;;;;;5.90;2.88;;;;;;;-142.75;100.00;76365.56;5069750;28;20036;-61
2023/07/21 03:27:12;;;;;;;6.07;2.65;;;;;;;-142.75;100.00;76369.50;5069635;28;20040;-60
2023/07/21 03:29:38;;;;;;;3.42;2.30;;;;;;;-142.75;100.00;76373.44;5078216;28;20035;-60
2023/07/21 03:32:04;;;;;;;3.28;2.08;;;;;;;-142.75;100.00;76363.59;5075314;28;20025;-59
2023/07/21 03:34:29;;;;;;;4.72;3.28;;;;;;;-142.75;100.00;76367.53;5069652;28;20016;-59
2023/07/21 03:36:54;;;;;;;5.88;3.63;;;;;;;-142.75;100.00;76355.72;5069672;28;20062;-60
2023/07/21 03:39:23;;;;;;;6.70;3.03;;;;;;;-142.75;100.00;76351.81;5089261;28;20134;-59
2023/07/21 03:41:48;;;;;;;5.05;3.35;;;;;;;-142.75;100.00;76338.03;5089333;28;20487;-59
2023/07/21 03:44:14;;;;;;;5.13;3.97;;;;;;;-142.75;100.00;76334.09;5088450;28;20107;-60
2023/07/21 03:46:39;;;;;;;6.45;3.80;;;;;;;-142.75;100.00;76330.16;5089562;28;20034;-60
2023/07/21 03:49:05;;;;;;;7.68;2.50;;;;;;;-142.75;100.00;76330.16;5089633;28;20020;-60
2023/07/21 03:51:30;;;;;;;5.05;2.80;;;;;;;-142.75;100.00;76324.25;5087954;28;20017;-60
2023/07/21 03:53:58;;;;;;;7.47;2.63;;;;;;;-142.75;100.00;76332.13;5089590;28;20443;-60
2023/07/21 03:56:25;;;;;;;4.65;2.58;;;;;;;-142.75;100.00;76334.09;5077976;28;20188;-61
2023/07/21 03:58:53;;;;;;;4.32;2.83;;;;;;;-142.75;100.00;76330.16;5076004;28;20016;-58
2023/07/21 04:01:19;;;;;;;3.55;2.30;;;;;;;-142.75;100.00;76343.94;5071101;28;20483;-60
2023/07/21 04:03:44;;;;;;;3.40;2.25;;;;;;;-142.75;100.00;76340.00;5073704;28;20050;-59
2023/07/21 04:06:10;;;;;;;4.57;2.55;;;;;;;-142.75;100.00;76332.13;5076679;28;20028;-57
2023/07/21 04:08:35;;;;;;;4.72;2.80;;;;;;;-142.75;100.00;76334.09;5074773;28;20439;-60
2023/07/21 04:11:01;;;;;;;5.53;2.90;;;;;;;-142.75;100.00;76322.28;5071929;28;20111;-60
2023/07/21 04:13:26;;;;;;;5.18;3.92;;;;;;;-142.75;100.00;76314.41;5075021;28;20372;-61
2023/07/21 04:15:52;;;;;;;8.13;5.43;;;;;;;-142.75;100.00;76322.28;5074714;28;20028;-59
2023/07/21 04:18:18;;;;;;;7.80;5.10;;;;;;;-142.75;100.00;76310.47;5073179;28;20029;-57
2023/07/21 04:20:43;;;;;;;7.43;4.70;;;;;;;-142.75;100.00;76302.59;5071706;28;20020;-58
2023/07/21 04:23:12;;;;;;;8.60;4.20;;;;;;;-142.75;100.00;76292.75;5076247;28;20032;-59
2023/07/21 04:25:37;;;;;;;7.70;4.38;;;;;;;-142.75;100.00;76275.03;5073044;28;20031;-60
2023/07/21 04:28:05;;;;;;;7.93;4.70;;;;;;;-142.75;100.00;76271.09;5068933;28;20012;-58
2023/07/21 04:30:31;;;;;;;8.13;4.90;;;;;;;-142.75;100.00;76263.22;5068562;28;20020;-60
2023/07/21 04:32:57;;;;;;;7.43;5.30;;;;;;;-142.75;100.00;76267.16;5081834;28;20020;-59
2023/07/21 04:35:22;;;;;;;10.45;5.53;;;;;;;-142.75;100.00;76257.31;5069370;28;20377;-60
2023/07/21 04:37:48;;;;;;;6.80;4.45;;;;;;;-142.75;100.00;76251.41;5072519;28;20047;-59
2023/07/21 04:40:13;;;;;;;8.05;4.70;;;;;;;-142.75;100.00;76247.47;5083431;28;20017;-59
2023/07/21 04:42:39;;;;;;;6.80;4.35;;;;;;;-142.75;100.00;76243.53;5068368;28;20028;-60
2023/07/21 04:45:06;;;;;;;7.57;4.78;;;;;;;-142.75;100.00;76245.50;5076190;28;20462;-61
2023/07/21 04:47:31;;;;;;;7.30;4.53;;;;;;;-142.75;100.00;76229.75;5088277;28;20387;-59
2023/07/21 04:49:57;;;;;;;7.72;4.63;;;;;;;-142.75;100.00;76219.91;5087931;28;20024;-60
2023/07/21 04:52:22;;;;;;;7.47;4.75;;;;;;;-142.75;100.00;76215.97;5088248;28;20382;-60
2023/07/21 04:54:48;;;;;;;8.93;5.10;;;;;;;-142.75;100.00;76215.97;5088070;28;20184;-59
2023/07/21 04:57:13;;;;;;;8.25;4.53;;;;;;;-142.75;100.00;76225.81;5078056;28;20024;-59
2023/07/21 04:59:39;;;;;;;9.07;4.80;;;;;;;-142.75;100.00;76227.78;5067015;28;20027;-59
2023/07/21 05:02:05;;;;;;;7.63;5.10;;;;;;;-142.75;100.00;76231.72;5069852;28;20021;-58
2023/07/21 05:04:30;;;;;;;8.63;4.80;;;;;;;-142.75;100.00;76223.84;5087913;28;20687;-60
2023/07/21 05:06:55;;;;;;;8.20;4.93;;;;;;;-142.75;100.00;76215.97;5087976;28;20031;-60
2023/07/21 05:09:21;;;;;;;9.23;4.93;;;;;;;-142.75;100.00;76194.34;5087580;28;20360;-60
2023/07/21 05:11:46;;;;;;;8.00;4.90;;;;;;;-142.75;100.00;76188.44;5087791;28;20526;-56
2023/07/21 05:14:13;;;;;;;7.70;4.75;;;;;;;-142.75;100.00;76178.59;5073420;28;20020;-58
2023/07/21 05:16:39;;;;;;;8.07;4.97;;;;;;;-142.75;100.00;76178.59;5069712;28;20051;-56
2023/07/21 05:19:04;;;;;;;7.45;4.68;;;;;;;-142.75;100.00;76174.66;5073479;28;20055;-60
2023/07/21 05:21:29;;;;;;;6.60;4.78;;;;;;;-142.75;100.00;76176.63;5077096;28;20021;-59
2023/07/21 05:23:55;;;;;;;8.55;5.30;;;;;;;-142.75;100.00;76180.56;5067860;28;20021;-59
2023/07/21 05:26:21;;;;;;;11.57;5.72;;;;;;;-142.75;100.00;76170.72;5065832;28;20401;-58
2023/07/21 05:28:47;;;;;;;10.85;5.75;;;;;;;-142.75;100.00;76160.88;5068553;28;20085;-57
2023/07/21 05:31:12;;;;;;;10.70;5.07;;;;;;;-142.75;100.00;76154.97;5066540;28;20032;-58
2023/07/21 05:33:38;;;;;;;8.40;4.95;;;;;;;-142.75;100.00;76133.31;5067383;28;20023;-59
2023/07/21 05:36:07;;;;;;;8.88;4.72;;;;;;;-142.75;100.00;76115.59;5066886;28;20017;-60
2023/07/21 05:38:32;;;;;;;8.75;5.45;;;;;;;-142.75;100.00;76119.53;5067346;28;20032;-60
2023/07/21 05:40:58;;;;;;;6.85;4.90;;;;;;;-142.75;100.00;76105.75;5067004;28;20452;-59
2023/07/21 05:43:24;;;;;;;9.48;6.07;;;;;;;-142.75;100.00;76105.75;5066965;28;20029;-60
2023/07/21 05:45:50;;;;;;;9.55;6.20;;;;;;;-142.75;100.00;76115.59;5067224;28;20511;-59
2023/07/21 05:48:15;;;;;;;9.20;6.10;;;;;;;-142.75;100.00;76117.56;5067174;28;20476;-59
2023/07/21 05:50:41;;;;;;;8.65;5.53;;;;;;;-142.75;100.00;76113.63;5076411;28;20027;-58
2023/07/21 05:53:06;;;;;;;9.38;6.47;;;;;;;-142.75;100.00;76119.53;5080237;28;20013;-60
2023/07/21 05:55:31;;;;;;;8.02;5.50;;;;;;;-142.75;100.00;76135.28;5067108;28;20028;-58
2023/07/21 05:57:57;;;;;;;8.55;5.88;;;;;;;-142.75;100.00;76149.06;5066817;28;20021;-58
2023/07/21 06:00:22;;;;;;;8.88;6.07;;;;;;;-142.75;100.00;76154.97;5067507;28;20012;-58
2023/07/21 06:02:48;;;;;;;8.93;5.95;;;;;;;-142.75;100.00;76151.03;5066912;28;20632;-59
2023/07/21 06:05:13;;;;;;;9.68;6.00;;;;;;;-142.75;100.00;76135.28;5066640;28;20025;-58
2023/07/21 06:07:42;;;;;;;9.32;5.85;;;;;;;-142.75;100.00;76137.25;5066224;28;20516;-57
2023/07/21 06:10:08;;;;;;;10.75;6.38;;;;;;;-142.75;100.00;76156.94;5077004;28;20020;-60
2023/07/21 06:12:33;;;;;;;11.07;6.40;;;;;;;-142.75;100.00;76135.28;5071142;28;20445;-60
2023/07/21 06:14:59;;;;;;;9.63;6.00;;;;;;;-142.75;100.00;76139.22;5086923;28;20027;-59
2023/07/21 06:17:26;;;;;;;10.32;5.68;;;;;;;-142.75;100.00;76178.59;5085195;28;20085;-59
2023/07/21 06:19:51;;;;;;;9.45;4.72;;;;;;;-142.75;100.00;76172.69;5086387;28;20055;-58
2023/07/21 06:22:17;;;;;;;6.45;4.13;;;;;;;-142.75;100.00;76176.63;5072185;28;20095;-58
2023/07/21 06:24:44;;;;;;;10.18;4.80;;;;;;;-142.75;100.00;76178.59;5073090;28;20651;-59
2023/07/21 06:27:12;;;;;;;9.35;4.45;;;;;;;-142.75;100.00;76180.56;5072189;28;20028;-59
2023/07/21 06:29:37;;;;;;;7.97;5.38;;;;;;;-142.75;100.00;76178.59;5077948;28;20052;-60
2023/07/21 06:32:03;;;;;;;8.38;5.10;;;;;;;-142.75;100.00;76168.75;5070949;28;21342;-58
2023/07/21 06:34:28;;;;;;;7.03;4.63;;;;;;;-142.75;100.00;76164.81;5079294;28;20177;-57
2023/07/21 06:36:54;;;;;;;6.57;4.45;;;;;;;-142.75;100.00;76154.97;5073540;28;20401;-59
2023/07/21 06:39:22;;;;;;;6.78;4.57;;;;;;;-142.75;100.00;76158.91;5068219;28;20081;-59
2023/07/21 06:41:47;;;;;;;8.40;5.00;;;;;;;-142.75;100.00;76145.13;5065575;28;20590;-59
2023/07/21 06:44:14;;;;;;;10.68;4.60;;;;;;;-142.75;100.00;76149.06;5068745;28;20115;-59
2023/07/21 06:46:40;;;;;;;7.63;5.15;;;;;;;-142.75;100.00;76145.13;5066979;28;20025;-57
2023/07/21 06:49:05;;;;;;;8.32;4.57;;;;;;;-142.75;100.00;76137.25;5069321;28;20031;-59
2023/07/21 06:51:30;;;;;;;9.40;4.85;;;;;;;-142.75;100.00;76121.50;5067347;28;20020;-57
2023/07/21 06:53:56;;;;;;;7.97;5.20;;;;;;;-142.75;100.00;76113.63;5067112;28;20035;-58
2023/07/21 06:56:21;;;;;;;8.18;4.65;;;;;;;-142.75;100.00;76109.69;5066355;28;20056;-59
2023/07/21 06:58:47;;;;;;;6.68;3.67;;;;;;;-142.75;100.00;76097.88;5066509;28;20090;-58
2023/07/21 07:01:12;;;;;;;7.38;4.55;;;;;;;-142.75;100.00;76111.66;5069748;28;20035;-56
2023/07/21 07:03:37;;;;;;;5.90;4.40;;;;;;;-142.75;100.00;76117.56;5072014;28;20025;-59
2023/07/21 07:06:03;;;;;;;7.30;4.25;;;;;;;-142.75;100.00;76109.69;5069374;28;20524;-56
2023/07/21 07:08:28;;;;;;;6.03;3.95;;;;;;;-142.75;100.00;76091.97;5065532;28;20499;-58
2023/07/21 07:10:53;;;;;;;6.38;4.50;;;;;;;-142.75;100.00;76074.25;5071289;28;20477;-57
2023/07/21 07:13:19;;;;;;;8.05;3.85;;;;;;;-142.75;100.00;76050.66;5071992;28;20015;-60
2023/07/21 07:15:53;;;;;;;4.32;3.08;;;;;;;-142.75;100.00;76023.09;5066848;28;20021;-60
2023/07/21 07:18:18;;;;;;;4.75;2.63;;;;;;;-142.75;100.00;76038.84;5067157;28;20035;-60
2023/07/21 07:20:51;;;;;;;4.22;2.40;;;;;;;-142.75;100.00;76015.22;5070225;28;20017;-59
2023/07/21 07:23:18;;;;;;;5.40;2.80;;;;;;;-142.75;100.00;76007.34;5070362;28;20032;-57
2023/07/21 07:25:52;;;;;;;7.00;2.60;;;;;;;-142.75;100.00;75985.69;5072427;28;20248;-60
2023/07/21 07:28:19;;;;;;;5.07;2.60;;;;;;;-142.75;100.00;75997.50;5073756;28;20051;-58
2023/07/21 07:30:45;;;;;;;3.92;2.50;;;;;;;-142.75;100.00;75999.47;5070385;28;20613;-59
2023/07/21 07:33:10;;;;;;;5.57;2.50;;;;;;;-142.75;100.00;75975.84;5071308;28;20108;-59
2023/07/21 07:35:36;;;;;;;5.97;2.80;;;;;;;-142.75;100.00;75979.78;5070137;28;20039;-59
2023/07/21 07:38:01;;;;;;;4.90;2.33;;;;;;;-142.75;100.00;75977.81;5070156;28;20069;-57
2023/07/21 07:40:27;;;;;;;6.15;2.60;;;;;;;-142.75;100.00;75960.13;5069725;28;20051;-58
2023/07/21 07:42:52;;;;;;;3.88;1.77;;;;;;;-142.75;100.00;75958.16;5070186;28;20609;-59
2023/07/21 07:45:17;;;;;;;2.70;1.60;;;;;;;-142.75;100.00;75993.56;5085850;28;20472;-58
2023/07/21 07:47:44;;;;;;;3.38;1.70;;;;;;;-142.75;100.00;75991.59;5090297;28;20517;-60
2023/07/21 07:50:10;;;;;;;2.80;1.33;;;;;;;-142.75;100.00;75987.66;5072198;28;20033;-59
2023/07/21 07:52:36;;;;;;;3.72;1.48;;;;;;;-142.75;100.00;75989.63;5070282;28;20032;-58
2023/07/21 07:55:02;;;;;;;4.68;1.67;;;;;;;-142.75;100.00;75966.00;5069904;28;20387;-59
2023/07/21 07:57:28;;;;;;;3.35;1.48;;;;;;;-142.75;100.00;75956.19;5068300;28;20024;-60
2023/07/21 07:59:55;;;;;;;3.63;1.60;;;;;;;-142.75;100.00;75942.41;5070870;28;20494;-58
2023/07/21 08:02:21;;;;;;;2.90;1.77;;;;;;;-142.75;100.00;75960.13;5073694;28;20054;-59
2023/07/21 08:04:46;;;;;;;3.63;1.80;;;;;;;-142.75;100.00;75944.38;5070328;28;20113;-59
2023/07/21 08:07:11;;;;;;;4.40;1.85;;;;;;;-142.75;100.00;75940.44;5069419;28;20032;-59
2023/07/21 08:09:37;;;;;;;5.43;1.75;;;;;;;-142.75;100.00;75908.94;5069297;28;20025;-59
2023/07/21 08:12:03;;;;;;;4.00;1.70;;;;;;;-142.75;100.00;75928.63;5075280;28;20024;-60
2023/07/21 08:14:28;;;;;;;2.88;1.67;;;;;;;-142.75;100.00;75905.00;5078690;28;20028;-60
2023/07/21 08:16:53;;;;;;;3.28;1.65;;;;;;;-142.75;100.00;75897.13;5074735;28;20020;-60
2023/07/21 08:19:19;;;;;;;4.03;1.45;;;;;;;-142.75;100.00;75897.13;5079695;28;20406;-58
2023/07/21 08:21:47;;;;;;;3.67;1.58;;;;;;;-142.75;100.00;75863.66;5077284;28;20100;-58
2023/07/21 08:24:13;;;;;;;2.95;1.58;;;;;;;-142.75;100.00;75834.16;5077224;28;20020;-58
2023/07/21 08:26:38;;;;;;;4.95;1.30;;;;;;;-142.75;100.00;75865.63;5077399;28;20033;-57
2023/07/21 08:29:07;;;;;;;3.03;1.40;;;;;;;-142.75;100.00;75853.84;5071711;28;20056;-61
2023/07/21 08:31:32;;;;;;;4.13;1.50;;;;;;;-142.75;100.00;75816.44;5069449;28;20093;-60
2023/07/21 08:33:57;;;;;;;2.72;1.65;;;;;;;-142.75;100.00;75771.16;5069448;28;20024;-60
2023/07/21 08:36:23;;;;;;;5.88;1.42;;;;;;;-142.75;100.00;75741.66;5069283;28;20543;-60
2023/07/21 08:38:50;;;;;;;2.88;1.33;;;;;;;-142.75;100.00;75690.47;5073785;28;20107;-60
2023/07/21 08:41:18;;;;;;;4.65;1.10;;;;;;;-142.75;97.71;75660.97;5088976;28;20024;-59
2023/07/21 08:43:45;;;;;;;4.38;1.60;;;;;;;-142.75;97.90;75639.31;5088812;28;20028;-59
2023/07/21 08:46:11;;;;;;;4.90;1.30;;;;;;;-142.75;97.96;75605.84;5089320;28;20020;-61
2023/07/21 08:48:39;;;;;;;2.72;1.20;;;;;;;-142.75;90.13;75657.03;5089100;28;20036;-60
2023/07/21 08:51:05;;;;;;;3.15;1.05;;;;;;;-142.75;95.48;75629.47;5088555;28;20107;-58
2023/07/21 08:53:30;;;;;;;1.67;0.82;;;;;;;-142.75;95.46;75617.66;5089232;28;20144;-59
2023/07/21 08:55:59;;;;;;;2.22;0.90;;;;;;;-142.75;94.93;75629.47;5088962;28;20038;-60
2023/07/21 08:58:25;;;;;;;2.15;1.20;;;;;;;-142.75;93.25;75623.56;5088775;28;20507;-59
2023/07/21 09:00:54;;;;;;;2.58;1.10;;;;;;;-142.75;92.37;75609.78;5089282;28;20119;-59
2023/07/21 09:03:22;;;;;;;5.07;1.00;;;;;;;-142.75;91.52;75597.97;5088639;28;20510;-59
2023/07/21 09:05:49;;;;;;;2.78;1.23;;;;;;;-142.75;99.46;75601.91;5088819;28;20028;-60
2023/07/21 09:08:19;;;;;;;4.90;1.00;;;;;;;-142.75;95.07;75568.47;5088269;28;20420;-59
2023/07/21 09:10:44;;;;;;;4.65;1.05;;;;;;;-142.75;90.29;75590.13;5088641;28;20700;-61
2023/07/21 09:13:17;;;;;;;2.05;1.00;;;;;;;-142.75;88.88;75576.34;5088884;28;20065;-60
2023/07/21 09:15:50;;;;;;;2.97;1.00;;;;;;;-142.75;86.46;75613.72;5088824;28;20031;-60
2023/07/21 09:18:16;;;;;;;3.63;1.38;;;;;;;-142.75;89.90;75574.38;5088762;28;20437;-58
2023/07/21 09:20:45;;;;;;;4.00;1.05;;;;;;;-142.75;88.90;75548.78;5087827;28;20020;-60
2023/07/21 09:23:10;;;;;;;3.25;1.02;;;;;;;-142.75;83.31;75605.84;5072195;28;20161;-59
2023/07/21 09:25:35;;;;;;;1.90;1.02;;;;;;;-142.75;83.59;75662.94;5074520;28;20554;-60
2023/07/21 09:28:03;;;;;;;3.08;1.30;;;;;;;-142.75;85.39;75716.06;5076759;28;20657;-60
2023/07/21 09:30:29;;;;;;;3.15;1.30;;;;;;;-142.75;87.58;75723.94;5070655;28;20111;-60
2023/07/21 09:32:56;;;;;;;3.13;1.30;;;;;;;-142.75;86.80;75725.91;5073609;28;20096;-57
2023/07/21 09:35:21;;;;;;;2.53;1.00;;;;;;;-142.75;94.93;75727.88;5068382;28;20016;-58
2023/07/21 09:37:50;;;;;;;2.70;1.05;;;;;;;-142.75;91.13;75735.75;5068261;28;20043;-60
2023/07/21 09:40:16;;;;;;;2.53;1.00;;;;;;;-142.75;95.87;75747.56;5067787;28;20024;-60
2023/07/21 09:42:43;;;;;;;458.95;28.17;;;;;;;-142.75;100.00;75759.38;5067258;28;20094;-68
2023/07/21 09:45:09;;;;;;;17.48;2.35;;;;;;;-142.75;100.00;75735.75;5068296;28;20028;-66
2023/07/21 09:47:37;;;;;;;79.22;6.68;;;;;;;-142.75;99.98;75733.78;5068144;28;20056;-66
2023/07/21 09:50:03;;;;;;;5.50;1.42;;;;;;;-142.75;100.00;75767.22;5067735;28;20024;-66
2023/07/21 09:52:37;;;;;;;7.20;1.60;;;;;;;-142.75;100.00;75751.50;5068002;28;20035;-65
2023/07/21 09:55:11;;;;;;;4.85;1.20;;;;;;;-142.75;100.00;75747.56;5067512;28;20460;-65
2023/07/21 09:57:45;;;;;;;2.45;1.27;;;;;;;-142.75;100.00;75731.81;5067762;28;20020;-65
2023/07/21 10:00:13;;;;;;;6.10;2.03;;;;;;;-142.75;100.00;75733.78;5067563;28;20020;-65
2023/07/21 10:02:43;;;;;;;3.10;1.45;;;;;;;-142.75;100.00;75727.88;5074090;28;20124;-65
2023/07/21 10:05:10;;;;;;;2.30;1.02;;;;;;;-142.75;100.00;75761.34;5071359;28;20480;-65
2023/07/21 10:07:38;;;;;;;2.30;1.25;;;;;;;-142.75;100.00;75729.84;5070090;28;20028;-65
2023/07/21 10:10:05;;;;;;;3.63;1.42;;;;;;;-142.75;100.00;75720.00;5073520;28;20040;-65
2023/07/21 10:12:51;;;;;;;2.35;1.10;;;;;;;-142.75;100.00;75694.41;5071521;28;20699;-66
2023/07/21 10:15:19;;;;;;;2.10;1.02;;;;;;;-142.75;100.00;75694.41;5083329;28;20111;-66
2023/07/21 10:17:58;;;;;;;2.33;1.02;;;;;;;-142.75;100.00;75696.38;5087267;28;20035;-62
2023/07/21 10:20:42;;;;;;;2.83;1.20;;;;;;;-142.75;100.00;75702.28;5087602;28;20029;-64
2023/07/21 10:23:10;;;;;;;1.10;0.70;;;;;;;-142.75;100.00;75700.31;5084792;28;20020;-65
2023/07/21 10:25:51;;;;;;;2.65;1.13;;;;;;;-142.75;100.00;75692.44;5085920;28;20059;-63
2023/07/21 10:28:43;;;;;;;3.25;1.42;;;;;;;-142.75;100.00;75700.31;5087416;28;20483;-64
2023/07/21 10:31:20;;;;;;;2.05;1.02;;;;;;;-142.75;100.00;75733.78;5088067;28;20024;-63
2023/07/21 10:34:07;;;;;;;3.55;1.20;;;;;;;-142.75;100.00;75777.06;5087624;28;20078;-63
2023/07/21 10:36:51;;;;;;;2.08;0.82;;;;;;;-142.75;100.00;75794.78;5087569;28;20056;-66
2023/07/21 10:39:21;;;;;;;2.13;1.00;;;;;;;-142.75;100.00;75794.78;5087281;28;20554;-66
2023/07/21 10:41:51;;;;;;;2.55;0.95;;;;;;;-142.75;100.00;75806.59;5087375;28;20434;-65
2023/07/21 10:44:18;;;;;;;2.10;0.90;;;;;;;-142.75;100.00;75802.66;5087466;28;20039;-65
2023/07/21 10:46:46;;;;;;;2.60;1.10;;;;;;;-142.75;100.00;75814.47;5074742;28;20101;-65
2023/07/21 10:49:13;;;;;;;3.58;1.35;;;;;;;-142.75;100.00;75824.31;5067258;28;20020;-65
2023/07/21 10:51:39;;;;;;;3.30;0.82;;;;;;;-142.75;100.00;75808.56;5066937;28;20114;-65
2023/07/21 10:54:05;;;;;;;2.88;1.35;;;;;;;-142.75;100.00;75822.34;5070496;28;20021;-65
2023/07/21 10:56:34;;;;;;;2.15;1.20;;;;;;;-142.75;100.00;75826.28;5070646;28;20403;-65
2023/07/21 10:59:00;;;;;;;3.00;1.30;;;;;;;-142.75;100.00;75830.22;5075001;28;20111;-65
2023/07/21 11:01:26;;;;;;;1.90;1.00;;;;;;;-142.75;100.00;75818.41;5071224;28;20096;-66
2023/07/21 11:03:52;;;;;;;2.47;1.10;;;;;;;-142.75;100.00;75830.22;5068850;28;20029;-66
2023/07/21 11:06:18;;;;;;;1.90;0.90;;;;;;;-142.75;100.00;75867.59;5074718;28;20030;-65
2023/07/21 11:08:44;;;;;;;1.67;0.93;;;;;;;-142.75;100.00;75879.41;5074507;28;20024;-65